createdAt,value
2022-11-30T00:01:15.076Z,6.95
2022-11-30T00:03:42.888Z,6.95
2022-11-30T00:06:12.464Z,6.94
2022-11-30T00:08:40.265Z,6.94
2022-11-30T00:11:12.436Z,6.94
2022-11-30T00:13:40.224Z,6.94
2022-11-30T00:16:08.243Z,6.95
2022-11-30T00:18:36.085Z,6.94
2022-11-30T00:21:05.504Z,6.92
2022-11-30T00:23:34.626Z,6.91
2022-11-30T00:26:06.747Z,6.89
2022-11-30T00:28:34.988Z,6.90
2022-11-30T00:31:04.389Z,6.92
2022-11-30T00:33:36.138Z,6.93
2022-11-30T00:36:25.720Z,6.94
2022-11-30T00:38:53.466Z,6.94
2022-11-30T00:41:22.245Z,6.93
2022-11-30T00:43:50.029Z,6.90
2022-11-30T00:46:18.023Z,6.89
2022-11-30T00:48:45.877Z,6.89
2022-11-30T00:51:13.751Z,6.88
2022-11-30T00:53:41.969Z,6.89
2022-11-30T00:56:09.788Z,6.88
2022-11-30T00:58:37.553Z,6.89
2022-11-30T01:01:05.329Z,6.88
2022-11-30T01:03:33.867Z,6.85
2022-11-30T01:06:08.777Z,6.88
2022-11-30T01:08:36.746Z,6.85
2022-11-30T01:11:16.167Z,6.85
2022-11-30T01:13:43.962Z,6.86
2022-11-30T01:16:14.075Z,6.87
2022-11-30T01:18:41.811Z,6.86
2022-11-30T01:21:10.415Z,6.85
2022-11-30T01:23:38.152Z,6.84
2022-11-30T01:26:05.857Z,6.83
2022-11-30T01:28:33.815Z,6.83
2022-11-30T01:31:12.190Z,6.84
2022-11-30T01:33:40.043Z,6.85
2022-11-30T01:36:18.233Z,6.85
2022-11-30T01:38:47.713Z,6.86
2022-11-30T01:41:18.534Z,6.85
2022-11-30T01:43:52.089Z,6.86
2022-11-30T01:46:24.704Z,6.86
2022-11-30T01:49:12.636Z,6.87
2022-11-30T01:51:50.782Z,6.88
2022-11-30T01:54:21.389Z,6.89
2022-11-30T01:56:54.836Z,6.89
2022-11-30T01:59:23.341Z,6.89
2022-11-30T02:01:51.349Z,6.88
2022-11-30T02:04:27.480Z,6.85
2022-11-30T02:06:55.259Z,6.86
2022-11-30T02:09:22.939Z,6.87
2022-11-30T02:11:50.877Z,6.86
2022-11-30T02:14:21.635Z,6.84
2022-11-30T02:17:12.034Z,6.84
2022-11-30T02:19:57.876Z,6.85
2022-11-30T02:22:54.704Z,6.85
2022-11-30T02:25:47.417Z,6.84
2022-11-30T02:28:39.944Z,6.81
2022-11-30T02:31:09.392Z,6.80
2022-11-30T02:33:37.115Z,6.79
2022-11-30T02:36:05.017Z,6.81
2022-11-30T02:38:32.791Z,6.81
2022-11-30T02:41:00.610Z,6.80
2022-11-30T02:43:28.767Z,6.82
2022-11-30T02:46:05.657Z,6.83
2022-11-30T02:48:47.722Z,6.83
2022-11-30T02:51:18.705Z,6.86
2022-11-30T02:53:47.098Z,6.85
2022-11-30T02:56:14.895Z,6.88
2022-11-30T02:58:42.678Z,6.86
2022-11-30T03:01:10.526Z,6.84
2022-11-30T03:03:38.386Z,6.86
2022-11-30T03:06:06.215Z,6.84
2022-11-30T03:08:33.962Z,6.85
2022-11-30T03:11:05.528Z,6.86
2022-11-30T03:13:34.038Z,6.88
2022-11-30T03:16:12.299Z,6.90
2022-11-30T03:18:40.441Z,6.90
2022-11-30T03:21:11.940Z,6.88
2022-11-30T03:23:39.880Z,6.88
2022-11-30T03:26:09.130Z,6.90
2022-11-30T03:28:37.688Z,6.91
2022-11-30T03:31:05.735Z,6.91
2022-11-30T03:33:33.464Z,6.91
2022-11-30T03:36:06.050Z,6.91
2022-11-30T03:38:34.085Z,6.93
2022-11-30T03:41:06.036Z,6.90
2022-11-30T03:43:33.970Z,6.90
2022-11-30T03:46:02.079Z,6.88
2022-11-30T03:48:29.923Z,6.89
2022-11-30T03:50:57.729Z,6.86
2022-11-30T03:53:25.872Z,6.88
2022-11-30T03:55:58.022Z,6.87
2022-11-30T03:58:25.895Z,6.85
2022-11-30T04:01:14.612Z,6.85
2022-11-30T04:03:42.428Z,6.84
2022-11-30T04:06:11.234Z,6.78
2022-11-30T04:08:39.228Z,6.73
2022-11-30T04:11:06.958Z,6.74
2022-11-30T04:13:35.462Z,6.72
2022-11-30T04:16:03.310Z,6.79
2022-11-30T04:18:31.578Z,6.83
2022-11-30T04:21:00.086Z,6.85
2022-11-30T04:23:30.359Z,6.82
2022-11-30T04:25:58.332Z,6.80
2022-11-30T04:28:26.079Z,6.83
2022-11-30T04:30:54.748Z,6.84
2022-11-30T04:33:22.556Z,6.83
2022-11-30T04:35:52.097Z,6.78
2022-11-30T04:38:19.913Z,6.79
2022-11-30T04:40:47.609Z,6.78
2022-11-30T04:43:15.430Z,6.75
2022-11-30T04:45:43.955Z,6.73
2022-11-30T04:48:11.791Z,6.70
2022-11-30T04:50:40.525Z,6.70
2022-11-30T04:53:08.329Z,6.65
2022-11-30T04:55:37.906Z,6.66
2022-11-30T04:58:06.373Z,6.71
2022-11-30T05:00:34.277Z,6.70
2022-11-30T05:03:01.975Z,6.70
2022-11-30T05:05:29.734Z,6.71
2022-11-30T05:07:58.607Z,6.72
2022-11-30T05:10:27.046Z,6.73
2022-11-30T05:12:54.905Z,6.75
2022-11-30T05:15:22.917Z,6.71
2022-11-30T05:17:50.631Z,6.67
2022-11-30T05:20:18.457Z,6.64
2022-11-30T05:22:46.178Z,6.62
2022-11-30T05:25:13.902Z,6.65
2022-11-30T05:27:41.685Z,6.64
2022-11-30T05:30:09.797Z,6.65
2022-11-30T05:32:37.526Z,6.66
2022-11-30T05:35:05.444Z,6.66
2022-11-30T05:37:33.517Z,6.63
2022-11-30T05:40:01.302Z,6.58
2022-11-30T05:42:29.383Z,6.61
2022-11-30T05:44:57.166Z,6.64
2022-11-30T05:47:24.878Z,6.59
2022-11-30T05:49:52.637Z,6.57
2022-11-30T05:52:20.470Z,6.56
2022-11-30T05:54:48.374Z,6.53
2022-11-30T05:57:16.220Z,6.51
2022-11-30T05:59:44.114Z,6.53
2022-11-30T06:02:11.925Z,6.54
2022-11-30T06:04:39.730Z,6.53
2022-11-30T06:07:07.493Z,6.49
2022-11-30T06:09:35.156Z,6.50
2022-11-30T06:12:02.981Z,6.47
2022-11-30T06:14:30.793Z,6.45
2022-11-30T06:16:58.683Z,6.44
2022-11-30T06:19:26.450Z,6.43
2022-11-30T06:21:54.190Z,6.40
2022-11-30T06:24:21.856Z,6.38
2022-11-30T06:26:49.639Z,6.43
2022-11-30T06:29:17.344Z,6.40
2022-11-30T06:31:45.184Z,6.38
2022-11-30T06:34:12.972Z,6.37
2022-11-30T06:36:40.795Z,6.30
2022-11-30T06:39:10.305Z,6.32
2022-11-30T06:41:38.224Z,6.34
2022-11-30T06:44:09.858Z,6.32
2022-11-30T06:46:37.756Z,6.31
2022-11-30T06:49:05.622Z,6.64
2022-11-30T06:51:33.424Z,6.78
2022-11-30T06:54:01.127Z,7.07
2022-11-30T06:56:28.875Z,7.11
2022-11-30T06:58:56.771Z,7.06
2022-11-30T07:01:29.560Z,7.35
2022-11-30T07:03:57.461Z,7.09
2022-11-30T07:06:25.296Z,6.90
2022-11-30T07:08:53.095Z,6.78
2022-11-30T07:11:20.821Z,6.64
2022-11-30T07:13:48.593Z,6.56
2022-11-30T07:16:16.429Z,6.49
2022-11-30T07:18:48.843Z,6.45
2022-11-30T07:21:16.545Z,6.37
2022-11-30T07:24:02.935Z,6.34
2022-11-30T07:26:30.711Z,6.31
2022-11-30T07:29:01.428Z,6.27
2022-11-30T07:31:30.942Z,6.22
2022-11-30T07:33:59.740Z,6.21
2022-11-30T07:36:27.779Z,6.18
2022-11-30T07:38:55.554Z,6.17
2022-11-30T07:41:23.313Z,6.14
2022-11-30T07:43:58.659Z,6.14
2022-11-30T07:46:26.377Z,6.16
2022-11-30T07:48:54.113Z,6.14
2022-11-30T07:51:22.565Z,6.14
2022-11-30T07:53:50.644Z,6.08
2022-11-30T07:56:19.749Z,6.07
2022-11-30T07:58:48.145Z,6.07
2022-11-30T08:01:17.557Z,6.04
2022-11-30T08:03:45.499Z,6.02
2022-11-30T08:06:15.029Z,6.02
2022-11-30T08:08:44.454Z,6.03
2022-11-30T08:11:14.159Z,6.01
2022-11-30T08:13:42.135Z,6.02
2022-11-30T08:16:14.779Z,6.01
2022-11-30T08:18:42.843Z,5.97
2022-11-30T08:21:11.905Z,5.95
2022-11-30T08:23:50.085Z,5.93
2022-11-30T08:26:22.458Z,5.94
2022-11-30T08:28:51.392Z,5.92
2022-11-30T08:31:21.547Z,5.90
2022-11-30T08:33:49.390Z,5.87
2022-11-30T08:36:18.816Z,5.88
2022-11-30T08:38:46.944Z,5.89
2022-11-30T08:41:16.139Z,5.88
2022-11-30T08:43:44.049Z,5.90
2022-11-30T08:46:49.060Z,5.93
2022-11-30T08:49:20.257Z,5.93
2022-11-30T08:54:38.424Z,5.96
2022-11-30T08:57:06.525Z,5.94
2022-11-30T08:59:34.296Z,5.95
2022-11-30T09:02:02.111Z,5.97
2022-11-30T09:04:30.075Z,6.01
2022-11-30T09:07:00.022Z,6.03
2022-11-30T09:09:27.833Z,6.05
2022-11-30T09:11:55.548Z,6.09
2022-11-30T09:14:23.619Z,6.12
2022-11-30T09:16:51.404Z,6.12
2022-11-30T09:19:20.086Z,6.11
2022-11-30T09:21:51.795Z,6.13
2022-11-30T09:24:20.925Z,6.17
2022-11-30T09:26:53.840Z,6.28
2022-11-30T09:29:21.688Z,6.30
2022-11-30T09:31:50.591Z,6.34
2022-11-30T09:34:18.387Z,6.38
2022-11-30T09:36:46.307Z,6.41
2022-11-30T09:39:14.144Z,6.40
2022-11-30T09:42:09.711Z,6.39
2022-11-30T09:44:59.870Z,6.38
2022-11-30T09:48:06.021Z,6.39
2022-11-30T09:50:36.300Z,6.43
2022-11-30T09:53:06.599Z,6.45
2022-11-30T09:55:36.951Z,6.43
2022-11-30T09:58:05.365Z,6.48
2022-11-30T10:00:34.029Z,6.53
2022-11-30T10:03:04.264Z,6.54
2022-11-30T10:05:48.289Z,6.53
2022-11-30T10:08:39.357Z,6.55
2022-11-30T10:11:29.757Z,6.53
2022-11-30T10:14:19.161Z,6.51
2022-11-30T10:17:02.115Z,6.52
2022-11-30T10:19:44.931Z,6.49
2022-11-30T10:22:33.920Z,6.63
2022-11-30T10:25:26.515Z,7.13
2022-11-30T10:27:55.581Z,7.58
2022-11-30T10:30:27.719Z,7.43
2022-11-30T10:32:59.947Z,7.62
2022-11-30T10:35:33.135Z,7.76
2022-11-30T10:38:01.782Z,7.83
2022-11-30T10:40:39.751Z,7.86
2022-11-30T10:43:30.180Z,8.18
2022-11-30T10:45:57.999Z,8.24
2022-11-30T10:48:45.010Z,7.99
2022-11-30T10:51:12.778Z,8.01
2022-11-30T10:53:40.649Z,7.94
2022-11-30T10:56:12.937Z,8.10
2022-11-30T10:58:50.302Z,8.12
2022-11-30T11:01:38.344Z,7.85
2022-11-30T11:04:25.155Z,7.54
2022-11-30T11:06:56.285Z,7.30
2022-11-30T11:09:34.315Z,7.16
2022-11-30T11:12:02.728Z,7.06
2022-11-30T11:14:35.002Z,6.95
2022-11-30T11:17:07.459Z,6.83
2022-11-30T11:19:35.224Z,6.75
2022-11-30T11:22:05.157Z,6.68
2022-11-30T11:24:33.001Z,6.59
2022-11-30T11:27:00.875Z,6.56
2022-11-30T11:29:33.756Z,6.44
2022-11-30T11:32:19.066Z,6.37
2022-11-30T11:34:51.110Z,6.83
2022-11-30T11:37:29.959Z,6.64
2022-11-30T11:40:06.244Z,6.50
2022-11-30T11:43:05.369Z,6.44
2022-11-30T11:45:36.507Z,6.42
2022-11-30T11:48:06.321Z,6.38
2022-11-30T11:51:08.102Z,6.35
2022-11-30T11:53:53.016Z,6.27
2022-11-30T11:56:29.751Z,6.24
2022-11-30T11:59:02.996Z,6.20
2022-11-30T12:01:41.394Z,6.18
2022-11-30T12:04:21.330Z,6.16
2022-11-30T12:06:49.234Z,6.20
2022-11-30T12:09:19.671Z,6.22
2022-11-30T12:11:48.942Z,6.17
2022-11-30T12:14:18.621Z,6.14
2022-11-30T12:17:10.056Z,6.18
2022-11-30T12:20:01.870Z,6.20
2022-11-30T12:22:51.373Z,6.15
2022-11-30T12:25:29.540Z,6.09
2022-11-30T12:28:00.085Z,6.11
2022-11-30T12:30:30.748Z,6.09
2022-11-30T12:33:11.682Z,6.02
2022-11-30T12:36:17.219Z,6.01
2022-11-30T12:39:16.799Z,5.97
2022-11-30T12:41:52.013Z,5.94
2022-11-30T12:44:24.443Z,5.99
2022-11-30T12:47:21.455Z,6.01
2022-11-30T12:50:19.750Z,5.93
2022-11-30T12:53:14.627Z,5.89
2022-11-30T12:55:57.655Z,5.91
2022-11-30T12:58:32.363Z,5.91
2022-11-30T13:01:03.704Z,5.88
2022-11-30T13:03:52.896Z,5.88
2022-11-30T13:06:26.137Z,5.83
2022-11-30T13:09:13.195Z,5.75
2022-11-30T13:11:42.662Z,5.69
2022-11-30T13:14:36.714Z,5.64
2022-11-30T13:17:06.554Z,5.62
2022-11-30T13:20:11.900Z,5.62
2022-11-30T13:23:00.897Z,5.64
2022-11-30T13:28:47.483Z,5.61
2022-11-30T13:31:25.021Z,5.58
2022-11-30T13:33:55.863Z,5.57
2022-11-30T13:36:41.770Z,5.56
2022-11-30T13:39:15.428Z,5.52
2022-11-30T13:41:51.045Z,5.51
2022-11-30T13:44:33.409Z,5.53
2022-11-30T13:47:02.675Z,5.52
2022-11-30T13:49:36.779Z,5.50
2022-11-30T13:54:58.374Z,5.47
2022-11-30T13:57:26.126Z,5.53
2022-11-30T14:00:00.777Z,5.55
2022-11-30T14:02:44.117Z,5.49
2022-11-30T14:05:18.132Z,5.46
2022-11-30T14:07:46.767Z,5.45
2022-11-30T14:10:38.537Z,5.44
2022-11-30T14:13:26.780Z,5.45
2022-11-30T14:16:00.917Z,5.36
2022-11-30T14:18:33.415Z,5.27
2022-11-30T14:21:04.370Z,5.24
2022-11-30T14:23:41.094Z,5.24
2022-11-30T14:26:16.653Z,5.20
2022-11-30T14:28:59.630Z,5.16
2022-11-30T14:31:29.901Z,5.14
2022-11-30T14:34:29.545Z,5.06
2022-11-30T14:36:59.670Z,5.05
2022-11-30T14:39:43.582Z,5.01
2022-11-30T14:42:30.658Z,4.94
2022-11-30T14:44:58.634Z,4.95
2022-11-30T14:47:31.429Z,4.93
2022-11-30T14:50:03.294Z,4.93
2022-11-30T14:52:58.509Z,4.92
2022-11-30T14:55:47.812Z,4.87
2022-11-30T14:58:27.757Z,4.86
2022-11-30T15:00:56.030Z,4.85
2022-11-30T15:03:40.306Z,4.81
2022-11-30T15:06:14.872Z,4.78
2022-11-30T15:08:43.739Z,4.79
2022-11-30T15:11:15.367Z,4.82
2022-11-30T15:13:55.049Z,4.80
2022-11-30T15:16:27.561Z,4.83
2022-11-30T15:18:56.360Z,4.81
2022-11-30T15:21:26.001Z,4.85
2022-11-30T15:23:55.328Z,4.81
2022-11-30T15:26:32.284Z,4.79
2022-11-30T15:29:15.297Z,4.76
2022-11-30T15:31:44.917Z,4.78
2022-11-30T15:34:35.184Z,4.76
2022-11-30T15:37:07.473Z,4.75
2022-11-30T15:39:39.996Z,4.69
2022-11-30T15:42:08.003Z,4.72
2022-11-30T15:44:38.432Z,4.72
2022-11-30T15:47:25.844Z,4.74
2022-11-30T15:49:54.836Z,4.77
2022-11-30T15:52:30.517Z,4.76
2022-11-30T15:55:04.699Z,4.73
2022-11-30T15:57:58.154Z,4.69
2022-11-30T16:00:26.119Z,4.69
2022-11-30T16:03:11.672Z,4.73
2022-11-30T16:05:42.498Z,4.70
2022-11-30T16:08:17.809Z,4.69
2022-11-30T16:10:45.507Z,4.67
2022-11-30T16:13:15.175Z,4.71
2022-11-30T16:15:47.778Z,4.77
2022-11-30T16:18:22.050Z,4.78
2022-11-30T16:20:58.446Z,4.75
2022-11-30T16:23:30.894Z,4.77
2022-11-30T16:25:58.662Z,4.80
2022-11-30T16:28:26.394Z,4.80
2022-11-30T16:30:55.164Z,4.82
2022-11-30T16:33:24.083Z,4.80
2022-11-30T16:35:55.003Z,4.83
2022-11-30T16:38:23.076Z,4.84
2022-11-30T16:40:50.957Z,4.81
2022-11-30T16:43:19.748Z,4.81
2022-11-30T16:45:47.921Z,4.81
2022-11-30T16:48:15.666Z,4.80
2022-11-30T16:50:43.504Z,4.82
2022-11-30T16:53:12.931Z,4.84
2022-11-30T16:55:41.351Z,4.86
2022-11-30T16:58:09.313Z,4.82
2022-11-30T17:00:37.102Z,4.84
2022-11-30T17:03:09.602Z,4.86
2022-11-30T17:05:37.701Z,4.90
2022-11-30T17:08:05.611Z,4.91
2022-11-30T17:10:33.416Z,4.90
2022-11-30T17:13:01.207Z,4.91
2022-11-30T17:15:28.955Z,4.90
2022-11-30T17:18:00.382Z,4.89
2022-11-30T17:20:28.224Z,4.90
2022-11-30T17:22:56.069Z,4.89
2022-11-30T17:25:24.208Z,4.88
2022-11-30T17:27:52.425Z,4.88
2022-11-30T17:30:21.401Z,4.87
2022-11-30T17:32:49.485Z,4.85
2022-11-30T17:35:17.907Z,4.88
2022-11-30T17:37:45.659Z,4.92
2022-11-30T17:40:14.341Z,4.91
2022-11-30T17:42:42.192Z,4.92
2022-11-30T17:45:10.402Z,4.91
2022-11-30T17:47:38.757Z,4.92
2022-11-30T17:50:08.504Z,4.92
2022-11-30T17:52:36.350Z,4.95
2022-11-30T17:55:04.551Z,4.91
2022-11-30T17:57:32.399Z,4.93
2022-11-30T18:00:00.154Z,4.92
2022-11-30T18:02:27.997Z,4.90
2022-11-30T18:04:56.962Z,4.83
2022-11-30T18:07:24.929Z,4.86
2022-11-30T18:09:53.385Z,4.90
2022-11-30T18:12:21.165Z,4.89
2022-11-30T18:14:49.162Z,4.89
2022-11-30T18:17:17.099Z,4.91
2022-11-30T18:19:44.838Z,4.89
2022-11-30T18:22:12.652Z,4.91
2022-11-30T18:24:40.404Z,4.92
2022-11-30T18:27:13.416Z,4.90
2022-11-30T18:29:45.781Z,4.88
2022-11-30T18:32:18.136Z,4.89
2022-11-30T18:34:50.723Z,4.89
2022-11-30T18:37:18.805Z,4.91
2022-11-30T18:39:47.915Z,4.93
2022-11-30T18:42:15.860Z,4.93
2022-11-30T18:44:43.686Z,4.95
2022-11-30T18:47:11.471Z,4.92
2022-11-30T18:49:39.370Z,4.91
2022-11-30T18:52:07.219Z,4.90
2022-11-30T18:54:35.282Z,4.87
2022-11-30T18:57:03.399Z,4.86
2022-11-30T18:59:31.132Z,4.80
2022-11-30T19:01:59.083Z,4.80
2022-11-30T19:04:27.115Z,4.78
2022-11-30T19:06:54.920Z,4.81
2022-11-30T19:09:25.071Z,4.80
2022-11-30T19:11:52.895Z,4.80
2022-11-30T19:14:20.691Z,4.79
2022-11-30T19:16:48.991Z,4.78
2022-11-30T19:19:16.949Z,4.78
2022-11-30T19:21:45.845Z,4.76
2022-11-30T19:24:13.638Z,4.78
2022-11-30T19:26:41.492Z,4.74
2022-11-30T19:29:09.432Z,4.67
2022-11-30T19:31:37.273Z,4.68
2022-11-30T19:34:12.236Z,4.68
2022-11-30T19:36:40.626Z,4.67
2022-11-30T19:39:08.415Z,4.66
2022-11-30T19:41:36.194Z,4.63
2022-11-30T19:44:04.608Z,4.67
2022-11-30T19:46:33.877Z,4.71
2022-11-30T19:49:02.436Z,4.71
2022-11-30T19:51:30.546Z,4.70
2022-11-30T19:53:58.660Z,4.70
2022-11-30T19:56:26.614Z,4.73
2022-11-30T19:58:54.487Z,4.69
2022-11-30T20:01:26.424Z,4.65
2022-11-30T20:03:55.712Z,4.63
2022-11-30T20:06:28.348Z,4.64
2022-11-30T20:08:56.928Z,4.64
2022-11-30T20:11:27.732Z,4.61
2022-11-30T20:14:01.396Z,4.62
2022-11-30T20:16:29.322Z,4.63
2022-11-30T20:18:59.341Z,4.65
2022-11-30T20:21:28.625Z,4.66
2022-11-30T20:23:59.201Z,4.66
2022-11-30T20:26:30.959Z,4.64
2022-11-30T20:28:59.430Z,4.60
2022-11-30T20:31:27.492Z,4.64
2022-11-30T20:33:55.224Z,4.66
2022-11-30T20:36:23.359Z,4.66
2022-11-30T20:38:51.181Z,4.61
2022-11-30T20:41:20.691Z,4.60
2022-11-30T20:43:48.452Z,4.64
2022-11-30T20:46:35.342Z,4.63
2022-11-30T20:49:04.307Z,4.61
2022-11-30T20:51:33.515Z,4.60
2022-11-30T20:54:08.186Z,4.59
2022-11-30T20:56:37.764Z,4.58
2022-11-30T20:59:07.524Z,4.54
2022-11-30T21:01:35.392Z,4.49
2022-11-30T21:04:03.285Z,4.44
2022-11-30T21:06:31.375Z,4.44
2022-11-30T21:08:59.563Z,4.49
2022-11-30T21:11:27.727Z,4.51
2022-11-30T21:13:56.302Z,4.54
2022-11-30T21:16:30.215Z,4.51
2022-11-30T21:18:59.353Z,4.53
2022-11-30T21:21:40.976Z,4.52
2022-11-30T21:24:09.345Z,4.54
2022-11-30T21:26:41.492Z,4.56
2022-11-30T21:29:12.523Z,4.57
2022-11-30T21:31:40.404Z,4.58
2022-11-30T21:34:08.280Z,4.57
2022-11-30T21:36:41.167Z,4.58
2022-11-30T21:39:10.766Z,4.57
2022-11-30T21:41:40.013Z,4.58
2022-11-30T21:44:08.835Z,4.60
2022-11-30T21:46:36.611Z,4.60
2022-11-30T21:49:04.446Z,4.57
2022-11-30T21:51:32.934Z,4.51
2022-11-30T21:54:05.833Z,4.48
2022-11-30T21:56:35.369Z,4.50
2022-11-30T21:59:03.339Z,4.60
2022-11-30T22:01:32.068Z,4.66
2022-11-30T22:04:00.435Z,4.69
2022-11-30T22:06:28.956Z,4.72
2022-11-30T22:09:09.676Z,4.70
2022-11-30T22:11:41.766Z,4.70
2022-11-30T22:14:13.265Z,4.70
2022-11-30T22:16:41.351Z,4.73
2022-11-30T22:19:09.249Z,4.72
2022-11-30T22:21:37.199Z,4.74
2022-11-30T22:24:06.996Z,4.76
2022-11-30T22:26:35.360Z,4.77
2022-11-30T22:29:05.698Z,4.77
2022-11-30T22:31:35.407Z,4.77
2022-11-30T22:34:05.921Z,4.84
2022-11-30T22:36:35.253Z,4.88
2022-11-30T22:39:13.509Z,4.88
2022-11-30T22:41:41.992Z,4.83
2022-11-30T22:44:12.479Z,4.84
2022-11-30T22:46:40.308Z,4.83
2022-11-30T22:49:15.799Z,4.84
2022-11-30T22:51:46.542Z,4.83
2022-11-30T22:54:16.511Z,4.84
2022-11-30T22:56:48.951Z,4.80
2022-11-30T22:59:16.882Z,4.80
2022-11-30T23:01:48.823Z,4.86
2022-11-30T23:04:18.387Z,4.87
2022-11-30T23:06:46.355Z,4.86
2022-11-30T23:09:18.953Z,4.86
2022-11-30T23:11:46.801Z,4.86
2022-11-30T23:14:14.715Z,4.85
2022-11-30T23:16:42.570Z,4.91
2022-11-30T23:19:11.533Z,4.90
2022-11-30T23:21:42.089Z,4.88
2022-11-30T23:24:13.335Z,4.89
2022-11-30T23:26:41.284Z,4.88
2022-11-30T23:29:11.041Z,4.89
2022-11-30T23:31:39.905Z,4.87
2022-11-30T23:34:09.168Z,4.86
2022-11-30T23:36:37.252Z,4.87
2022-11-30T23:39:07.334Z,4.87
2022-11-30T23:41:35.090Z,4.89
2022-11-30T23:44:02.891Z,4.89
2022-11-30T23:46:30.918Z,4.88
2022-11-30T23:48:58.817Z,4.87
2022-11-30T23:51:26.627Z,4.88
2022-11-30T23:53:54.509Z,4.84
2022-11-30T23:56:23.032Z,4.87
2022-11-30T23:58:51.475Z,4.88
